createdAt,value
2023-03-02T00:01:26.209Z,102204.81
2023-03-02T00:03:53.098Z,102213.44
2023-03-02T00:06:19.942Z,102207.97
2023-03-02T00:08:47.292Z,102201.63
2023-03-02T00:11:15.565Z,102221.16
2023-03-02T00:13:43.190Z,102213.88
2023-03-02T00:16:09.766Z,102216.00
2023-03-02T00:18:36.319Z,102224.88
2023-03-02T00:21:02.783Z,102214.72
2023-03-02T00:23:29.216Z,102211.19
2023-03-02T00:25:55.638Z,102218.41
2023-03-02T00:28:22.200Z,102209.22
2023-03-02T00:30:48.666Z,102207.84
2023-03-02T00:33:15.127Z,102203.81
2023-03-02T00:35:41.675Z,102207.78
2023-03-02T00:38:08.457Z,102211.03
2023-03-02T00:40:35.727Z,102210.00
2023-03-02T00:43:02.541Z,102211.44
2023-03-02T00:45:29.150Z,102209.22
2023-03-02T00:47:55.673Z,102208.44
2023-03-02T00:50:22.154Z,102209.59
2023-03-02T00:52:48.620Z,102204.31
2023-03-02T00:55:15.092Z,102205.19
2023-03-02T00:57:41.635Z,102205.28
2023-03-02T01:00:10.215Z,102207.47
2023-03-02T01:02:39.089Z,102187.69
2023-03-02T01:05:05.813Z,102192.47
2023-03-02T01:07:32.248Z,102187.91
2023-03-02T01:09:58.689Z,102201.66
2023-03-02T01:12:25.158Z,102208.94
2023-03-02T01:14:51.680Z,102203.91
2023-03-02T01:17:18.192Z,102203.94
2023-03-02T01:19:44.754Z,102211.59
2023-03-02T01:22:11.496Z,102214.47
2023-03-02T01:24:37.950Z,102215.41
2023-03-02T01:27:04.452Z,102214.25
2023-03-02T01:29:31.115Z,102209.72
2023-03-02T01:31:57.645Z,102210.47
2023-03-02T01:34:24.221Z,102214.03
2023-03-02T01:36:50.701Z,102209.38
2023-03-02T01:39:17.393Z,102209.94
2023-03-02T01:41:45.950Z,102187.34
2023-03-02T01:44:40.198Z,102197.78
2023-03-02T01:47:25.723Z,102197.78
2023-03-02T01:50:05.894Z,102199.13
2023-03-02T01:52:35.265Z,102189.56
2023-03-02T01:55:05.036Z,102199.06
2023-03-02T01:57:34.592Z,102193.66
2023-03-02T02:00:10.213Z,102190.81
2023-03-02T02:02:36.838Z,102186.03
2023-03-02T02:05:04.356Z,102188.84
2023-03-02T02:07:31.404Z,102181.66
2023-03-02T02:09:58.279Z,102184.94
2023-03-02T02:12:24.834Z,102192.31
2023-03-02T02:14:51.615Z,102194.59
2023-03-02T02:17:19.540Z,102189.47
2023-03-02T02:20:07.546Z,102195.38
2023-03-02T02:22:49.662Z,102194.97
2023-03-02T02:25:36.645Z,102179.00
2023-03-02T02:28:10.910Z,102181.00
2023-03-02T02:30:40.600Z,102186.03
2023-03-02T02:33:07.823Z,102181.09
2023-03-02T02:35:38.564Z,102178.53
2023-03-02T02:38:07.930Z,102177.34
2023-03-02T02:40:51.922Z,102187.09
2023-03-02T02:43:20.670Z,102187.00
2023-03-02T02:45:49.191Z,102173.91
2023-03-02T02:48:18.312Z,102178.41
2023-03-02T02:50:46.425Z,102188.16
2023-03-02T02:53:20.307Z,102175.66
2023-03-02T02:55:50.928Z,102175.00
2023-03-02T02:58:43.346Z,102175.09
2023-03-02T03:01:15.124Z,102172.72
2023-03-02T03:03:48.473Z,102166.00
2023-03-02T03:06:19.144Z,102161.56
2023-03-02T03:08:48.157Z,102168.16
2023-03-02T03:11:23.349Z,102161.44
2023-03-02T03:13:58.681Z,102167.50
2023-03-02T03:16:28.467Z,102159.78
2023-03-02T03:18:57.493Z,102161.38
2023-03-02T03:21:23.941Z,102163.75
2023-03-02T03:23:50.581Z,102152.31
2023-03-02T03:26:18.236Z,102152.19
2023-03-02T03:28:44.716Z,102156.91
2023-03-02T03:31:11.271Z,102155.06
2023-03-02T03:33:37.825Z,102150.28
2023-03-02T03:36:04.746Z,102151.00
2023-03-02T03:38:31.292Z,102154.72
2023-03-02T03:40:57.737Z,102153.19
2023-03-02T03:43:24.229Z,102147.47
2023-03-02T03:45:52.021Z,102150.28
2023-03-02T03:48:18.618Z,102148.63
2023-03-02T03:50:45.438Z,102147.56
2023-03-02T03:53:12.008Z,102161.38
2023-03-02T03:55:38.473Z,102156.84
2023-03-02T03:58:04.924Z,102152.16
2023-03-02T04:00:31.337Z,102152.22
2023-03-02T04:02:57.766Z,102153.19
2023-03-02T04:05:24.397Z,102154.53
2023-03-02T04:07:50.875Z,102160.59
2023-03-02T04:10:17.321Z,102160.94
2023-03-02T04:12:43.867Z,102165.03
2023-03-02T04:15:15.765Z,102163.34
2023-03-02T04:17:44.912Z,102162.47
2023-03-02T04:20:16.700Z,102165.88
2023-03-02T04:22:49.014Z,102169.78
2023-03-02T04:25:19.632Z,102172.47
2023-03-02T04:27:47.491Z,102174.34
2023-03-02T04:30:15.379Z,102173.56
2023-03-02T04:32:43.863Z,102171.03
2023-03-02T04:35:14.742Z,102165.91
2023-03-02T04:37:43.527Z,102168.25
2023-03-02T04:40:11.949Z,102163.13
2023-03-02T04:42:38.412Z,102160.94
2023-03-02T04:45:05.363Z,102156.31
2023-03-02T04:47:31.761Z,102153.00
2023-03-02T04:49:58.175Z,102157.00
2023-03-02T04:52:25.547Z,102157.28
2023-03-02T04:54:52.256Z,102153.28
2023-03-02T04:57:18.704Z,102161.84
2023-03-02T04:59:45.105Z,102158.28
2023-03-02T05:02:11.621Z,102154.63
2023-03-02T05:04:40.339Z,102154.28
2023-03-02T05:07:06.854Z,102146.84
2023-03-02T05:09:33.265Z,102152.28
2023-03-02T05:12:00.756Z,102147.81
2023-03-02T05:14:27.538Z,102147.91
2023-03-02T05:16:54.323Z,102146.97
2023-03-02T05:19:20.887Z,102150.53
2023-03-02T05:21:47.463Z,102153.28
2023-03-02T05:24:14.296Z,102150.56
2023-03-02T05:26:41.113Z,102151.97
2023-03-02T05:29:08.114Z,102144.44
2023-03-02T05:31:38.401Z,102148.97
2023-03-02T05:34:07.636Z,102143.13
2023-03-02T05:36:35.214Z,102144.56
2023-03-02T05:39:01.978Z,102149.44
2023-03-02T05:41:28.751Z,102148.88
2023-03-02T05:43:55.506Z,102150.34
2023-03-02T05:46:22.342Z,102149.88
2023-03-02T05:48:48.925Z,102151.41
2023-03-02T05:51:15.711Z,102149.13
2023-03-02T05:53:42.286Z,102143.31
2023-03-02T05:56:09.238Z,102147.91
2023-03-02T05:58:35.779Z,102153.41
2023-03-02T06:01:02.457Z,102152.34
2023-03-02T06:03:29.118Z,102158.59
2023-03-02T06:05:55.724Z,102156.31
2023-03-02T06:08:22.276Z,102163.75
2023-03-02T06:10:50.797Z,102158.78
2023-03-02T06:13:17.792Z,102165.81
2023-03-02T06:15:44.761Z,102167.03
2023-03-02T06:18:12.536Z,102167.03
2023-03-02T06:20:40.477Z,102172.34
2023-03-02T06:23:06.973Z,102168.78
2023-03-02T06:25:33.675Z,102168.19
2023-03-02T06:28:00.167Z,102180.25
2023-03-02T06:30:27.945Z,102177.03
2023-03-02T06:32:54.729Z,102177.22
2023-03-02T06:35:21.397Z,102177.53
2023-03-02T06:37:47.904Z,102176.34
2023-03-02T06:40:14.559Z,102176.00
2023-03-02T06:42:42.099Z,102183.56
2023-03-02T06:45:10.241Z,102179.94
2023-03-02T06:47:37.024Z,102188.75
2023-03-02T06:50:04.013Z,102184.28
2023-03-02T06:52:30.540Z,102186.50
2023-03-02T06:54:56.992Z,102182.69
2023-03-02T06:57:23.448Z,102183.34
2023-03-02T06:59:49.848Z,102178.88
2023-03-02T07:02:16.306Z,102179.66
2023-03-02T07:04:42.766Z,102182.06
2023-03-02T07:07:09.299Z,102177.00
2023-03-02T07:09:35.815Z,102178.78
2023-03-02T07:12:02.520Z,102175.22
2023-03-02T07:14:28.948Z,102173.34
2023-03-02T07:16:57.496Z,102175.75
2023-03-02T07:19:24.322Z,102173.34
2023-03-02T07:21:50.750Z,102167.31
2023-03-02T07:24:17.212Z,102162.50
2023-03-02T07:26:43.713Z,102169.16
2023-03-02T07:29:10.182Z,102164.44
2023-03-02T07:31:36.653Z,102163.19
2023-03-02T07:34:03.258Z,102163.09
2023-03-02T07:36:30.131Z,102161.19
2023-03-02T07:38:56.723Z,102163.56
2023-03-02T07:41:23.226Z,102162.88
2023-03-02T07:43:49.724Z,102167.19
2023-03-02T07:46:16.485Z,102161.88
2023-03-02T07:48:43.019Z,102166.19
2023-03-02T07:51:09.505Z,102169.47
2023-03-02T07:53:36.227Z,102173.84
2023-03-02T07:56:07.130Z,102171.66
2023-03-02T07:58:35.173Z,102169.66
2023-03-02T08:01:01.763Z,102173.88
2023-03-02T08:03:28.500Z,102171.16
2023-03-02T08:05:55.065Z,102163.50
2023-03-02T08:08:21.567Z,102151.91
2023-03-02T08:10:48.036Z,102156.63
2023-03-02T08:13:14.570Z,102146.84
2023-03-02T08:15:40.978Z,102152.63
2023-03-02T08:18:07.508Z,102155.63
2023-03-02T08:20:33.922Z,102149.66
2023-03-02T08:23:00.329Z,102152.47
2023-03-02T08:25:27.754Z,102153.50
2023-03-02T08:27:54.343Z,102155.09
2023-03-02T08:30:20.925Z,102152.63
2023-03-02T08:32:47.474Z,102153.41
2023-03-02T08:35:13.956Z,102159.41
2023-03-02T08:37:40.423Z,102161.50
2023-03-02T08:40:09.685Z,102165.50
2023-03-02T08:42:36.162Z,102161.69
2023-03-02T08:45:02.623Z,102148.63
2023-03-02T08:47:29.093Z,102149.09
2023-03-02T08:49:55.514Z,102149.00
2023-03-02T08:52:21.960Z,102148.44
2023-03-02T08:54:48.434Z,102137.84
2023-03-02T08:57:14.986Z,102137.53
2023-03-02T08:59:41.565Z,102130.66
2023-03-02T09:02:11.393Z,102134.31
2023-03-02T09:04:38.301Z,102118.94
2023-03-02T09:07:05.104Z,102129.03
2023-03-02T09:09:31.568Z,102129.81
2023-03-02T09:11:58.048Z,102127.34
2023-03-02T09:14:24.999Z,102135.09
2023-03-02T09:16:52.799Z,102128.13
2023-03-02T09:19:19.741Z,102123.25
2023-03-02T09:21:46.247Z,102127.28
2023-03-02T09:24:12.718Z,102117.59
2023-03-02T09:26:39.183Z,102111.16
2023-03-02T09:29:07.143Z,102115.03
2023-03-02T09:31:34.938Z,102121.94
2023-03-02T09:34:01.679Z,102126.88
2023-03-02T09:36:28.700Z,102116.91
2023-03-02T09:38:55.437Z,102123.28
2023-03-02T09:41:21.802Z,102127.22
2023-03-02T09:44:30.205Z,102127.91
2023-03-02T09:47:04.885Z,102126.41
2023-03-02T09:49:36.112Z,102135.38
2023-03-02T09:52:15.871Z,102131.66
2023-03-02T09:54:42.916Z,102138.75
2023-03-02T09:57:21.848Z,102137.44
2023-03-02T10:00:04.015Z,102132.31
2023-03-02T10:02:48.453Z,102137.09
2023-03-02T10:05:27.333Z,102133.06
2023-03-02T10:07:53.893Z,102122.91
2023-03-02T10:10:40.609Z,102136.81
2023-03-02T10:13:22.370Z,102131.47
2023-03-02T10:16:12.632Z,102127.53
2023-03-02T10:18:51.270Z,102114.75
2023-03-02T10:21:29.865Z,102129.59
2023-03-02T10:24:00.175Z,102122.63
2023-03-02T10:26:33.890Z,102127.66
2023-03-02T10:29:10.228Z,102126.59
2023-03-02T10:31:39.829Z,102116.94
2023-03-02T10:34:10.228Z,102114.44
2023-03-02T10:36:43.577Z,102111.22
2023-03-02T10:39:17.796Z,102112.41
2023-03-02T10:41:56.314Z,102108.53
2023-03-02T10:44:28.749Z,102105.81
2023-03-02T10:46:55.311Z,102098.59
2023-03-02T10:49:29.247Z,102101.47
2023-03-02T10:51:57.413Z,102094.72
2023-03-02T10:54:26.016Z,102094.59
2023-03-02T10:56:55.054Z,102095.72
2023-03-02T10:59:43.747Z,102083.06
2023-03-02T11:02:22.444Z,102093.41
2023-03-02T11:04:58.328Z,102093.13
2023-03-02T11:07:27.782Z,102094.44
2023-03-02T11:10:05.335Z,102085.78
2023-03-02T11:12:35.292Z,102085.06
2023-03-02T11:15:33.971Z,102084.00
2023-03-02T11:18:12.309Z,102076.19
2023-03-02T11:20:43.595Z,102075.16
2023-03-02T11:23:37.798Z,102071.66
2023-03-02T11:26:25.472Z,102068.19
2023-03-02T11:29:04.756Z,102061.25
2023-03-02T11:31:50.535Z,102060.56
2023-03-02T11:34:28.886Z,102056.47
2023-03-02T11:37:09.304Z,102056.31
2023-03-02T11:39:55.784Z,102043.94
2023-03-02T11:42:36.170Z,102037.19
2023-03-02T11:45:15.462Z,102046.31
2023-03-02T11:48:03.174Z,102038.53
2023-03-02T11:50:33.500Z,102039.16
2023-03-02T11:53:03.700Z,102036.69
2023-03-02T11:55:39.505Z,102041.78
2023-03-02T11:58:07.094Z,102033.25
2023-03-02T12:00:42.548Z,102024.75
2023-03-02T12:03:14.864Z,102025.41
2023-03-02T12:05:47.476Z,102020.13
2023-03-02T12:08:20.105Z,102014.56
2023-03-02T12:10:55.709Z,102019.06
2023-03-02T12:13:32.416Z,102024.91
2023-03-02T12:15:59.114Z,102016.19
2023-03-02T12:18:43.360Z,102010.31
2023-03-02T12:21:17.523Z,102006.41
2023-03-02T12:23:43.917Z,102002.38
2023-03-02T12:26:19.184Z,102001.88
2023-03-02T12:29:02.884Z,101999.78
2023-03-02T12:31:49.625Z,101998.69
2023-03-02T12:34:25.151Z,101987.03
2023-03-02T12:36:57.330Z,102002.44
2023-03-02T12:39:45.199Z,101997.75
2023-03-02T12:42:41.957Z,101995.88
2023-03-02T12:45:20.101Z,101989.66
2023-03-02T12:47:51.986Z,101990.31
2023-03-02T12:50:23.374Z,101992.63
2023-03-02T12:53:03.451Z,101980.66
2023-03-02T12:55:30.946Z,101983.09
2023-03-02T12:58:01.278Z,101984.22
2023-03-02T13:00:34.466Z,101983.25
2023-03-02T13:03:07.251Z,101978.00
2023-03-02T13:05:36.894Z,101977.88
2023-03-02T13:08:18.974Z,101978.25
2023-03-02T13:10:54.482Z,101965.94
2023-03-02T13:13:27.655Z,101971.97
2023-03-02T13:15:57.861Z,101965.56
2023-03-02T13:18:28.213Z,101950.53
2023-03-02T13:20:55.749Z,101944.66
2023-03-02T13:23:22.246Z,101948.78
2023-03-02T13:25:53.006Z,101940.25
2023-03-02T13:28:38.604Z,101947.19
2023-03-02T13:31:17.477Z,101944.97
2023-03-02T13:33:45.862Z,101952.34
2023-03-02T13:36:30.993Z,101942.59
2023-03-02T13:38:59.813Z,101937.31
2023-03-02T13:41:32.843Z,101940.31
2023-03-02T13:44:16.544Z,101940.78
2023-03-02T13:46:42.954Z,101936.78
2023-03-02T13:49:11.503Z,101950.84
2023-03-02T13:51:47.169Z,101946.63
2023-03-02T13:54:26.316Z,101941.00
2023-03-02T13:56:53.830Z,101938.28
2023-03-02T13:59:22.010Z,101946.44
2023-03-02T14:01:48.647Z,101948.97
2023-03-02T14:04:23.261Z,101945.00
2023-03-02T14:06:51.753Z,101944.19
2023-03-02T14:09:18.556Z,101941.31
2023-03-02T14:11:47.921Z,101936.97
2023-03-02T14:14:17.483Z,101932.31
2023-03-02T14:16:43.953Z,101939.91
2023-03-02T14:19:13.736Z,101928.75
2023-03-02T14:21:42.045Z,101927.00
2023-03-02T14:24:08.678Z,101928.44
2023-03-02T14:26:40.868Z,101924.22
2023-03-02T14:29:12.632Z,101927.03
2023-03-02T14:31:39.049Z,101922.25
2023-03-02T14:34:05.513Z,101921.84
2023-03-02T14:36:34.988Z,101922.75
2023-03-02T14:39:04.227Z,101918.00
2023-03-02T14:41:34.421Z,101920.34
2023-03-02T14:44:04.961Z,101921.22
2023-03-02T14:46:31.595Z,101923.81
2023-03-02T14:48:58.071Z,101909.34
2023-03-02T14:51:28.097Z,101913.91
2023-03-02T14:53:56.331Z,101904.28
2023-03-02T14:56:23.277Z,101912.03
2023-03-02T14:58:50.856Z,101911.06
2023-03-02T15:01:18.297Z,101908.34
2023-03-02T15:03:44.846Z,101910.28
2023-03-02T15:06:26.112Z,101906.66
2023-03-02T15:08:54.022Z,101910.94
2023-03-02T15:11:20.435Z,101910.72
2023-03-02T15:13:46.936Z,101916.56
2023-03-02T15:16:13.563Z,101912.31
2023-03-02T15:18:40.476Z,101914.16
2023-03-02T15:21:07.404Z,101903.38
2023-03-02T15:23:33.946Z,101908.75
2023-03-02T15:26:01.323Z,101898.25
2023-03-02T15:28:28.239Z,101907.06
2023-03-02T15:30:56.176Z,101907.19
2023-03-02T15:33:22.862Z,101912.13
2023-03-02T15:35:55.416Z,101903.56
2023-03-02T15:38:22.363Z,101900.78
2023-03-02T15:40:48.838Z,101909.03
2023-03-02T15:43:15.348Z,101897.91
2023-03-02T15:45:46.337Z,101902.81
2023-03-02T15:48:13.762Z,101898.63
2023-03-02T15:50:40.280Z,101908.38
2023-03-02T15:53:07.101Z,101904.19
2023-03-02T15:55:33.564Z,101906.69
2023-03-02T15:58:00.059Z,101902.97
2023-03-02T16:00:26.736Z,101905.31
2023-03-02T16:02:53.316Z,101910.38
2023-03-02T16:05:19.746Z,101911.66
2023-03-02T16:07:46.198Z,101908.50
2023-03-02T16:10:16.317Z,101908.13
2023-03-02T16:12:42.869Z,101924.78
2023-03-02T16:15:09.712Z,101921.31
2023-03-02T16:17:36.166Z,101926.34
2023-03-02T16:20:03.046Z,101919.88
2023-03-02T16:22:29.527Z,101922.78
2023-03-02T16:24:55.921Z,101925.47
2023-03-02T16:27:22.412Z,101925.69
2023-03-02T16:29:48.855Z,101925.03
2023-03-02T16:32:15.392Z,101931.44
2023-03-02T16:34:41.974Z,101927.69
2023-03-02T16:37:08.400Z,101930.56
2023-03-02T16:39:35.006Z,101924.69
2023-03-02T16:42:01.414Z,101933.28
2023-03-02T16:44:28.237Z,101939.81
2023-03-02T16:46:57.037Z,101938.34
2023-03-02T16:49:23.906Z,101931.59
2023-03-02T16:51:50.393Z,101949.00
2023-03-02T16:54:17.009Z,101941.97
2023-03-02T16:56:47.123Z,101952.94
2023-03-02T16:59:13.762Z,101956.53
2023-03-02T17:01:40.325Z,101962.06
2023-03-02T17:04:06.946Z,101962.66
2023-03-02T17:06:33.446Z,101967.84
2023-03-02T17:08:59.984Z,101969.34
2023-03-02T17:11:26.548Z,101972.91
2023-03-02T17:13:53.013Z,101972.38
2023-03-02T17:16:19.557Z,101977.69
2023-03-02T17:18:46.997Z,101980.25
2023-03-02T17:21:16.237Z,101986.06
2023-03-02T17:23:42.866Z,101985.56
2023-03-02T17:26:09.670Z,101986.28
2023-03-02T17:28:36.243Z,101987.44
2023-03-02T17:31:04.434Z,101991.94
2023-03-02T17:33:32.101Z,101990.09
2023-03-02T17:35:58.537Z,101993.53
2023-03-02T17:38:24.990Z,102002.78
2023-03-02T17:40:51.372Z,101999.72
2023-03-02T17:43:17.949Z,102005.25
2023-03-02T17:45:44.442Z,102003.50
2023-03-02T17:48:10.895Z,102011.88
2023-03-02T17:50:37.473Z,102012.88
2023-03-02T17:53:04.038Z,102017.06
2023-03-02T17:55:30.835Z,102021.56
2023-03-02T17:57:57.329Z,102023.59
2023-03-02T18:00:24.604Z,102033.25
2023-03-02T18:02:51.352Z,102034.78
2023-03-02T18:05:18.368Z,102044.28
2023-03-02T18:07:45.152Z,102040.09
2023-03-02T18:10:12.215Z,102042.66
2023-03-02T18:12:39.054Z,102045.56
2023-03-02T18:15:06.079Z,102049.19
2023-03-02T18:17:32.737Z,102051.25
2023-03-02T18:19:59.298Z,102059.84
2023-03-02T18:22:25.716Z,102064.69
2023-03-02T18:24:52.908Z,102068.44
2023-03-02T18:27:19.653Z,102074.78
2023-03-02T18:29:46.303Z,102083.63
2023-03-02T18:32:12.902Z,102076.06
2023-03-02T18:34:39.490Z,102081.78
2023-03-02T18:37:06.251Z,102073.72
2023-03-02T18:39:32.767Z,102087.78
2023-03-02T18:41:59.581Z,102090.72
2023-03-02T18:44:28.025Z,102086.72
2023-03-02T18:46:55.158Z,102089.41
2023-03-02T18:49:21.729Z,102088.13
2023-03-02T18:51:48.580Z,102081.56
2023-03-02T18:54:15.258Z,102096.38
2023-03-02T18:56:41.786Z,102081.88
2023-03-02T18:59:09.484Z,102086.00
2023-03-02T19:01:36.015Z,102090.38
2023-03-02T19:04:03.528Z,102094.59
2023-03-02T19:06:30.287Z,102101.19
2023-03-02T19:08:56.752Z,102104.47
2023-03-02T19:11:23.391Z,102105.72
2023-03-02T19:13:49.780Z,102106.66
2023-03-02T19:16:18.229Z,102104.94
2023-03-02T19:18:44.984Z,102104.84
2023-03-02T19:21:11.419Z,102106.16
2023-03-02T19:23:38.420Z,102108.19
2023-03-02T19:26:05.190Z,102107.91
2023-03-02T19:28:33.865Z,102104.94
2023-03-02T19:31:04.136Z,102103.22
2023-03-02T19:33:30.589Z,102112.19
2023-03-02T19:35:57.048Z,102112.06
2023-03-02T19:38:23.926Z,102117.06
2023-03-02T19:40:50.357Z,102114.63
2023-03-02T19:43:16.800Z,102121.78
2023-03-02T19:45:43.204Z,102121.84
2023-03-02T19:48:13.626Z,102126.84
2023-03-02T19:50:40.747Z,102122.94
2023-03-02T19:53:07.306Z,102122.25
2023-03-02T19:55:34.171Z,102130.06
2023-03-02T19:58:02.038Z,102126.00
2023-03-02T20:00:31.096Z,102129.97
2023-03-02T20:02:58.273Z,102128.81
2023-03-02T20:05:26.137Z,102126.09
2023-03-02T20:07:53.117Z,102136.06
2023-03-02T20:10:40.060Z,102134.78
2023-03-02T20:13:07.038Z,102133.38
2023-03-02T20:15:38.112Z,102135.84
2023-03-02T20:18:07.603Z,102146.31
2023-03-02T20:20:34.733Z,102129.69
2023-03-02T20:23:01.174Z,102138.63
2023-03-02T20:25:28.811Z,102140.72
2023-03-02T20:27:55.836Z,102137.00
2023-03-02T20:30:27.918Z,102133.63
2023-03-02T20:32:55.886Z,102135.72
2023-03-02T20:35:22.608Z,102142.97
2023-03-02T20:37:49.786Z,102148.22
2023-03-02T20:40:17.199Z,102148.22
2023-03-02T20:42:44.669Z,102151.75
2023-03-02T20:45:11.984Z,102149.69
2023-03-02T20:47:38.655Z,102151.13
2023-03-02T20:50:08.507Z,102148.84
2023-03-02T20:52:36.961Z,102154.47
2023-03-02T20:55:05.098Z,102157.66
2023-03-02T20:57:31.900Z,102157.06
2023-03-02T20:59:58.953Z,102158.75
2023-03-02T21:02:25.431Z,102157.13
2023-03-02T21:04:51.958Z,102156.63
2023-03-02T21:07:18.541Z,102164.22
2023-03-02T21:09:45.166Z,102165.09
2023-03-02T21:12:11.834Z,102165.50
2023-03-02T21:14:40.293Z,102156.25
2023-03-02T21:17:07.764Z,102164.09
2023-03-02T21:19:34.623Z,102162.22
2023-03-02T21:22:01.247Z,102163.84
2023-03-02T21:24:28.085Z,102166.13
2023-03-02T21:26:54.866Z,102170.50
2023-03-02T21:29:23.132Z,102170.75
2023-03-02T21:31:50.071Z,102168.19
2023-03-02T21:34:18.828Z,102169.38
2023-03-02T21:36:46.542Z,102172.28
2023-03-02T21:39:13.592Z,102171.25
2023-03-02T21:41:40.304Z,102169.38
2023-03-02T21:44:13.404Z,102170.16
2023-03-02T21:46:39.982Z,102161.25
2023-03-02T21:49:06.806Z,102169.38
2023-03-02T21:51:35.315Z,102167.75
2023-03-02T21:54:01.889Z,102164.78
2023-03-02T21:56:28.709Z,102155.56
2023-03-02T21:58:56.722Z,102166.16
2023-03-02T22:01:24.572Z,102165.09
2023-03-02T22:03:51.297Z,102156.75
2023-03-02T22:06:20.776Z,102153.81
2023-03-02T22:08:47.183Z,102157.94
2023-03-02T22:11:21.651Z,102160.47
2023-03-02T22:13:50.190Z,102156.72
2023-03-02T22:16:18.293Z,102160.78
2023-03-02T22:18:46.453Z,102160.09
2023-03-02T22:21:30.866Z,102160.16
2023-03-02T22:24:09.499Z,102161.16
2023-03-02T22:26:41.946Z,102165.72
2023-03-02T22:29:16.175Z,102165.41
2023-03-02T22:31:49.023Z,102166.47
2023-03-02T22:34:20.596Z,102171.16
2023-03-02T22:36:47.939Z,102168.75
2023-03-02T22:39:26.816Z,102173.41
2023-03-02T22:41:59.122Z,102166.59
2023-03-02T22:44:25.591Z,102176.09
2023-03-02T22:46:55.763Z,102174.69
2023-03-02T22:49:22.274Z,102184.44
2023-03-02T22:51:48.726Z,102174.34
2023-03-02T22:54:21.984Z,102182.06
2023-03-02T22:56:51.544Z,102176.69
2023-03-02T22:59:28.309Z,102176.78
2023-03-02T23:02:00.078Z,102164.25
2023-03-02T23:04:37.197Z,102169.44
2023-03-02T23:07:21.636Z,102172.63
2023-03-02T23:09:48.502Z,102167.00
2023-03-02T23:12:19.390Z,102168.81
2023-03-02T23:14:49.994Z,102158.78
2023-03-02T23:17:38.702Z,102157.50
2023-03-02T23:20:09.282Z,102165.50
2023-03-02T23:22:36.540Z,102166.91
2023-03-02T23:25:03.623Z,102164.72
2023-03-02T23:27:30.273Z,102166.19
2023-03-02T23:29:56.666Z,102178.22
2023-03-02T23:32:23.224Z,102178.06
2023-03-02T23:34:50.204Z,102175.31
2023-03-02T23:37:16.786Z,102174.66
2023-03-02T23:39:45.723Z,102177.34
2023-03-02T23:42:12.661Z,102185.56
2023-03-02T23:44:39.093Z,102179.91
2023-03-02T23:47:05.512Z,102170.75
2023-03-02T23:49:32.288Z,102175.06
2023-03-02T23:51:58.703Z,102180.97
2023-03-02T23:54:25.071Z,102176.50
2023-03-02T23:56:51.460Z,102182.22
2023-03-02T23:59:17.880Z,102180.69
